Map

Track Data

SID SEASON NUMBER BASIN SUBBASIN NAME ISO_TIME NATURE LAT LON WMO_WIND WMO_PRES WMO_AGENCY TRACK_TYPE DIST2LAND LANDFALL IFLAG USA_AGENCY USA_ATCF_ID USA_LAT USA_LON USA_RECORD USA_STATUS USA_WIND USA_PRES USA_SSHS USA_R34_NE USA_R34_SE USA_R34_SW USA_R34_NW USA_R50_NE USA_R50_SE USA_R50_SW USA_R50_NW USA_R64_NE USA_R64_SE USA_R64_SW USA_R64_NW USA_POCI USA_ROCI USA_RMW USA_EYE TOKYO_LAT TOKYO_LON TOKYO_GRADE TOKYO_WIND TOKYO_PRES TOKYO_R50_DIR TOKYO_R50_LONG TOKYO_R50_SHORT TOKYO_R30_DIR TOKYO_R30_LONG TOKYO_R30_SHORT TOKYO_LAND CMA_LAT CMA_LON CMA_CAT CMA_WIND CMA_PRES HKO_LAT HKO_LON HKO_CAT HKO_WIND HKO_PRES NEWDELHI_LAT NEWDELHI_LON NEWDELHI_GRADE NEWDELHI_WIND NEWDELHI_PRES NEWDELHI_CI NEWDELHI_DP NEWDELHI_POCI REUNION_LAT REUNION_LON REUNION_TYPE REUNION_WIND REUNION_PRES REUNION_TNUM REUNION_CI REUNION_RMW REUNION_R34_NE REUNION_R34_SE REUNION_R34_SW REUNION_R34_NW REUNION_R50_NE REUNION_R50_SE REUNION_R50_SW REUNION_R50_NW REUNION_R64_NE REUNION_R64_SE REUNION_R64_SW REUNION_R64_NW BOM_LAT BOM_LON BOM_TYPE BOM_WIND BOM_PRES BOM_TNUM BOM_CI BOM_RMW BOM_R34_NE BOM_R34_SE BOM_R34_SW BOM_R34_NW BOM_R50_NE BOM_R50_SE BOM_R50_SW BOM_R50_NW BOM_R64_NE BOM_R64_SE BOM_R64_SW BOM_R64_NW BOM_ROCI BOM_POCI BOM_EYE BOM_POS_METHOD BOM_PRES_METHOD NADI_LAT NADI_LON NADI_CAT NADI_WIND NADI_PRES WELLINGTON_LAT WELLINGTON_LON WELLINGTON_WIND WELLINGTON_PRES DS824_LAT DS824_LON DS824_STAGE DS824_WIND DS824_PRES TD9636_LAT TD9636_LON TD9636_STAGE TD9636_WIND TD9636_PRES TD9635_LAT TD9635_LON TD9635_WIND TD9635_PRES TD9635_ROCI NEUMANN_LAT NEUMANN_LON NEUMANN_CLASS NEUMANN_WIND NEUMANN_PRES MLC_LAT MLC_LON MLC_CLASS MLC_WIND MLC_PRES USA_GUST BOM_GUST BOM_GUST_PER REUNION_GUST REUNION_GUST_PER USA_SEAHGT USA_SEARAD_NE USA_SEARAD_SE USA_SEARAD_SW USA_SEARAD_NW STORM_SPEED STORM_DIR
1947268N17088 1947 70 NI BB NOT_NAMED 1947-09-24 18:00:00 TS 16.9000 88.4000 main 405 400 O________O____ jtwc_io IO111947 16.9000 88.4000 -1 16.9000 88.4000 TC 3 271
1947268N17088 1947 70 NI BB NOT_NAMED 1947-09-24 21:00:00 TS 16.9025 88.2575 main 400 390 P________P____ IO111947 16.9025 88.2575 -1 16.9025 88.2575 TC 3 270
1947268N17088 1947 70 NI BB NOT_NAMED 1947-09-25 00:00:00 TS 16.9000 88.1000 main 390 381 O________O____ jtwc_io IO111947 16.9000 88.1000 -1 16.9000 88.1000 TC 25 3 268
1947268N17088 1947 70 NI BB NOT_NAMED 1947-09-25 03:00:00 TS 16.8933 87.9133 main 381 372 P________PO___ IO111947 16.8925 87.9150 -1 16.8925 87.9150 TC 25 16.9000 87.9000 1 4 272
1947268N17088 1947 70 NI BB NOT_NAMED 1947-09-25 06:00:00 TS 16.9111 87.6844 main 372 351 O________OP___ jtwc_io IO111947 16.9000 87.7000 -1 16.9000 87.7000 TC 25 16.9553 87.6222 1 5 278
1947268N17088 1947 70 NI BB NOT_NAMED 1947-09-25 09:00:00 TS 16.9604 87.4297 main 351 340 P________PP___ IO111947 16.9425 87.4575 -1 16.9425 87.4575 TC 25 17.0083 87.3554 1 5 282
1947268N17088 1947 70 NI BB NOT_NAMED 1947-09-25 12:00:00 TS 17.0190 87.1703 main 340 308 O________OP___ jtwc_io IO111947 17.0000 87.2000 -1 17.0000 87.2000 TC 25 17.0571 87.1109 1 5 282
1947268N17088 1947 70 NI BB NOT_NAMED 1947-09-25 15:00:00 TS 17.0667 86.9283 main 308 292 P________PO___ IO111947 17.0500 86.9425 -1 17.0500 86.9425 TC 25 17.1000 86.9000 1 5 282
1947268N17088 1947 70 NI BB NOT_NAMED 1947-09-25 18:00:00 TS 17.1124 86.7081 main 292 269 O________OP___ jtwc_io IO111947 17.1000 86.7000 -1 17.1000 86.7000 TC 25 17.1371 86.7243 1 4 283
1947268N17088 1947 70 NI BB NOT_NAMED 1947-09-25 21:00:00 TS 17.1536 86.5306 main 269 253 P________PP___ IO111947 17.1423 86.5224 -1 17.1423 86.5224 TC 25 17.1763 86.5468 1 4 284
1947268N17088 1947 70 NI BB NOT_NAMED 1947-09-26 00:00:00 TS 17.2091 86.3070 main 253 222 O________OP___ jtwc_io IO111947 17.2000 86.3000 -1 17.2000 86.3000 TC 25 17.2274 86.3210 1 6 285
1947268N17088 1947 70 NI BB NOT_NAMED 1947-09-26 03:00:00 TS 17.2949 85.9733 main 222 176 P________PO___ IO111947 17.2924 85.9600 -1 17.2924 85.9600 TC 25 17.3000 86.0000 1 8 284
1947268N17088 1947 70 NI BB NOT_NAMED 1947-09-26 06:00:00 TS 17.3972 85.5099 main 176 130 O________OP___ jtwc_io IO111947 17.4000 85.5000 -1 17.4000 85.5000 TC 25 17.3917 85.5296 1 10 281
1947268N17088 1947 70 NI BB NOT_NAMED 1947-09-26 09:00:00 TS 17.4919 84.9406 main 123 79 P________PP___ IO111947 17.4851 84.9298 -1 17.4851 84.9298 TC 25 17.5056 84.9622 1 12 281
1947268N17088 1947 70 NI BB NOT_NAMED 1947-09-26 12:00:00 TS 17.6139 84.3129 main 79 23 O________OP___ jtwc_io IO111947 17.6000 84.3000 -1 17.6000 84.3000 TC 25 17.6416 84.3387 1 12 284
1947268N17088 1947 70 NI BB NOT_NAMED 1947-09-26 15:00:00 TS 17.7898 83.7050 main 23 0 P________PO___ IO111947 17.7847 83.7075 -1 17.7847 83.7075 TC 25 17.8000 83.7000 1 12 288
1947268N17088 1947 70 NI BB NOT_NAMED 1947-09-26 18:00:00 TS 17.9983 83.0891 main 0 0 O________OP___ jtwc_io IO111947 18.0000 83.1000 -1 18.0000 83.1000 TC 25 17.9950 83.0673 1 13 289
1947268N17088 1947 70 NI BB NOT_NAMED 1947-09-26 21:00:00 TS 18.2078 82.4246 main 0 0 P________PP___ IO111947 18.2077 82.4201 -1 18.2077 82.4201 TC 25 18.2081 82.4335 1 13 289
1947268N17088 1947 70 NI BB NOT_NAMED 1947-09-27 00:00:00 TS 18.4057 81.8110 main 0 0 O________OP___ jtwc_io IO111947 18.4000 81.8000 -1 18.4000 81.8000 TC 25 18.4170 81.8329 1 11 290
1947268N17088 1947 70 NI BB NOT_NAMED 1947-09-27 03:00:00 TS 18.5764 81.3366 main 0 0 P________PO___ IO111947 18.5647 81.3548 -1 18.5647 81.3548 TC 25 18.6000 81.3000 1 9 291
1947268N17088 1947 70 NI BB NOT_NAMED 1947-09-27 06:00:00 TS 18.7106 80.9592 main 0 0 O________OP___ jtwc_io IO111947 18.7000 81.0000 -1 18.7000 81.0000 TC 25 18.7317 80.8775 1 7 289
1947268N17088 1947 70 NI BB NOT_NAMED 1947-09-27 09:00:00 TS 18.8170 80.6030 main 0 0 P________PP___ IO111947 18.8074 80.6424 -1 18.8074 80.6424 TC 25 18.8362 80.5242 1 7 287
1947268N17088 1947 70 NI BB NOT_NAMED 1947-09-27 12:00:00 TS 18.9075 80.2696 main 0 0 O________OP___ jtwc_io IO111947 18.9000 80.3000 -1 18.9000 80.3000 TC 25 18.9226 80.2089 1 7 287
1947268N17088 1947 70 NI BB NOT_NAMED 1947-09-27 15:00:00 TS 19.0050 79.9333 main 0 0 P________PO___ IO111947 19.0074 79.9500 -1 19.0074 79.9500 TC 25 19.0000 79.9000 1 7 286
1947268N17088 1947 70 NI BB NOT_NAMED 1947-09-27 18:00:00 TS 19.0953 79.5887 main 0 0 O________OP___ jtwc_io IO111947 19.1000 79.6000 -1 19.1000 79.6000 TC 25 19.0858 79.5661 1 7 283
1947268N17088 1947 70 NI BB NOT_NAMED 1947-09-27 21:00:00 TS 19.1547 79.2482 main 0 0 P________PP___ IO111947 19.1499 79.2574 -1 19.1499 79.2574 TC 25 19.1644 79.2298 1 7 280
1947268N17088 1947 70 NI BB NOT_NAMED 1947-09-28 00:00:00 TS 19.2119 78.8929 main 0 0 O________OP___ jtwc_io IO111947 19.2000 78.9000 -1 19.2000 78.9000 TC 25 19.2357 78.8786 1 7 282
1947268N17088 1947 70 NI BB NOT_NAMED 1947-09-28 03:00:00 TS 19.3049 78.5101 main 0 0 P________PO___ IO111947 19.3074 78.5151 -1 19.3074 78.5151 TC 25 19.3000 78.5000 1 8 283
1947268N17088 1947 70 NI BB NOT_NAMED 1947-09-28 06:00:00 TS 19.3830 78.0928 main 0 0 O________OP___ jtwc_io IO111947 19.4000 78.1000 -1 19.4000 78.1000 TC 25 19.3491 78.0785 1 8 276
1947268N17088 1947 70 NI AS NOT_NAMED 1947-09-28 09:00:00 TS 19.3974 77.6480 main 0 0 P________PP___ IO111947 19.3999 77.6573 -1 19.3999 77.6573 TC 25 19.3925 77.6296 1 9 272
1947268N17088 1947 70 NI AS NOT_NAMED 1947-09-28 12:00:00 TS 19.4132 77.1886 main 0 0 O________OP___ jtwc_io IO111947 19.4000 77.2000 -1 19.4000 77.2000 TC 25 19.4396 77.1659 1 9 276
1947268N17088 1947 70 NI AS NOT_NAMED 1947-09-28 15:00:00 TS 19.4899 76.7334 main 0 0 P________PO___ IO111947 19.4849 76.7501 -1 19.4849 76.7501 TC 25 19.5000 76.7000 1 9 282
1947268N17088 1947 70 NI AS NOT_NAMED 1947-09-28 18:00:00 TS 19.5923 76.2767 main 0 0 O________OP___ jtwc_io IO111947 19.6000 76.3000 -1 19.6000 76.3000 TC 25 19.5806 76.2417 1 9 283
1947268N17088 1947 70 NI AS NOT_NAMED 1947-09-28 21:00:00 TS 19.6936 75.8246 main 0 0 P________PP___ IO111947 19.7052 75.8501 -1 19.7052 75.8501 TC 25 19.6782 75.7907 1 9 283
1947268N17088 1947 70 NI AS NOT_NAMED 1947-09-29 00:00:00 TS 19.7933 75.3722 main 0 0 O________OP___ jtwc_io IO111947 19.8000 75.4000 -1 19.8000 75.4000 TC 25 19.7866 75.3444 1 9 283
1947268N17088 1947 70 NI AS NOT_NAMED 1947-09-29 03:00:00 NR 19.9000 74.9000 main 0 __________O___ IO111947 -1 TC 19.9000 74.9000 1 9 284

About IBTrACS Database

This database is a web-friendly format of International Best Track Archive for Climate Stewardship (IBTrACS), a global best track data archive curated by NOAA dating back to 1842.

Updated: 2021-10-08